Time;durP1;ratioP1;P1;durP2;ratioP2;P2;SDS_P1;SDS_P2;PMS_P1;PMS_P2;Temp;Humidity;BMP_temperature;BMP_pressure;BME280_temperature;BME280_humidity;BME280_pressure;Samples;Min_cycle;Max_cycle;Signal;HPM_P1;HPM_P2
2021/06/19 00:00:42;;;;;;;4.43;3.28;;;24.60;72.10;;;;;;5133429;27;20047;-46
2021/06/19 00:03:07;;;;;;;3.60;2.60;;;24.60;72.10;;;;;;5133458;27;20043;-48
2021/06/19 00:05:33;;;;;;;2.88;2.58;;;24.50;72.00;;;;;;5132259;27;20549;-47
2021/06/19 00:07:59;;;;;;;3.65;2.72;;;24.60;72.10;;;;;;5133243;27;20489;-49
2021/06/19 00:10:26;;;;;;;3.13;2.70;;;24.50;72.00;;;;;;5133443;27;20050;-51
2021/06/19 00:12:52;;;;;;;3.28;2.80;;;24.50;72.00;;;;;;5133885;27;20054;-46
2021/06/19 00:15:21;;;;;;;2.58;2.30;;;24.60;72.10;;;;;;5132732;27;20045;-43
2021/06/19 00:17:47;;;;;;;3.67;2.92;;;24.60;72.10;;;;;;5133248;28;20483;-48
2021/06/19 00:20:16;;;;;;;3.13;2.67;;;24.50;72.00;;;;;;5132789;28;20457;-48
2021/06/19 00:22:43;;;;;;;4.57;2.80;;;24.50;72.00;;;;;;5133414;28;20054;-47
2021/06/19 00:25:11;;;;;;;4.35;3.50;;;24.50;71.90;;;;;;5133473;28;20057;-49
2021/06/19 00:27:37;;;;;;;2.67;2.47;;;24.50;71.90;;;;;;5132977;28;20046;-47
2021/06/19 00:30:08;;;;;;;4.78;3.45;;;24.50;72.00;;;;;;5132570;28;20149;-50
2021/06/19 00:32:34;;;;;;;3.45;2.85;;;24.50;71.90;;;;;;5133270;28;20050;-49
2021/06/19 00:35:00;;;;;;;3.40;2.65;;;24.50;71.90;;;;;;5132934;28;20047;-48
2021/06/19 00:37:25;;;;;;;3.47;2.28;;;24.50;71.90;;;;;;5113495;28;20047;-49
2021/06/19 00:39:51;;;;;;;3.65;2.85;;;24.50;71.80;;;;;;5132780;28;20047;-47
2021/06/19 00:42:21;;;;;;;3.13;2.70;;;24.50;71.80;;;;;;5132926;28;20050;-47
2021/06/19 00:44:48;;;;;;;2.83;2.53;;;24.60;71.90;;;;;;5132792;28;20043;-47
2021/06/19 00:47:14;;;;;;;3.08;2.78;;;24.50;71.80;;;;;;5133007;28;20123;-44
2021/06/19 00:49:40;;;;;;;3.90;3.00;;;24.50;71.80;;;;;;5132827;28;20130;-50
2021/06/19 00:52:06;;;;;;;3.30;3.00;;;24.60;71.90;;;;;;5132536;28;20043;-44
2021/06/19 00:54:33;;;;;;;3.28;2.97;;;24.50;72.40;;;;;;5133186;28;20047;-47
2021/06/19 00:57:00;;;;;;;3.22;2.92;;;24.50;71.80;;;;;;5132785;28;20395;-47
2021/06/19 00:59:26;;;;;;;3.30;2.40;;;24.50;71.80;;;;;;5132946;28;20047;-49
2021/06/19 01:01:53;;;;;;;2.90;2.60;;;24.50;71.70;;;;;;5132525;28;20483;-48
2021/06/19 01:04:19;;;;;;;3.17;2.80;;;24.50;71.70;;;;;;5132453;28;20040;-48
2021/06/19 01:06:45;;;;;;;3.20;2.85;;;24.50;71.70;;;;;;5132778;28;20066;-51
2021/06/19 01:09:11;;;;;;;3.55;2.80;;;24.50;71.70;;;;;;5132697;28;20104;-45
2021/06/19 01:11:38;;;;;;;2.55;2.35;;;24.50;71.70;;;;;;5132437;28;20486;-48
2021/06/19 01:14:05;;;;;;;2.55;2.35;;;24.50;71.70;;;;;;5132608;28;20051;-47
2021/06/19 01:16:32;;;;;;;2.58;2.38;;;24.50;71.70;;;;;;5133773;27;20039;-51
2021/06/19 01:18:58;;;;;;;2.92;2.25;;;24.50;71.70;;;;;;5136933;27;20043;-49
2021/06/19 01:21:26;;;;;;;3.67;2.47;;;24.50;71.70;;;;;;5136148;27;20054;-42
2021/06/19 01:23:53;;;;;;;3.88;2.80;;;24.50;71.60;;;;;;5135712;27;20181;-43
2021/06/19 01:26:28;;;;;;;3.60;3.03;;;24.50;71.60;;;;;;5136783;27;20047;-49
2021/06/19 01:28:54;;;;;;;;;;;24.50;71.60;;;;;;5136603;27;20058;-49
2021/06/19 01:31:20;;;;;;;3.95;3.10;;;24.50;71.30;;;;;;5135952;27;19923;-47
2021/06/19 01:33:47;;;;;;;2.92;2.63;;;24.50;71.70;;;;;;5135706;27;20479;-48
2021/06/19 01:36:15;;;;;;;3.60;2.80;;;24.40;71.70;;;;;;5136204;27;20047;-44
2021/06/19 01:38:42;;;;;;;3.38;2.80;;;24.40;71.60;;;;;;5117315;27;20039;-46
2021/06/19 01:41:15;;;;;;;2.90;2.55;;;24.50;71.70;;;;;;5136162;27;20387;-49
2021/06/19 01:43:42;;;;;;;3.80;3.10;;;24.50;72.30;;;;;;5134089;27;20050;-42
2021/06/19 01:46:08;;;;;;;3.67;2.92;;;24.40;71.60;;;;;;5125791;27;20047;-48
2021/06/19 01:48:34;;;;;;;3.05;2.65;;;24.40;71.60;;;;;;5135843;27;20122;-48
2021/06/19 01:50:59;;;;;;;3.00;2.72;;;24.50;71.60;;;;;;5136134;27;20084;-49
2021/06/19 01:53:25;;;;;;;3.50;2.63;;;24.50;71.60;;;;;;5135892;27;20069;-48
2021/06/19 01:55:51;;;;;;;3.08;2.60;;;24.40;71.60;;;;;;5135414;27;20554;-49
2021/06/19 01:58:16;;;;;;;2.92;2.63;;;24.50;71.60;;;;;;5135158;27;20138;-44
2021/06/19 02:00:42;;;;;;;3.30;2.60;;;24.40;71.60;;;;;;5132167;27;20487;-51
2021/06/19 02:03:08;;;;;;;2.95;2.60;;;24.40;71.60;;;;;;5135689;27;20490;-50
2021/06/19 02:05:34;;;;;;;3.10;2.80;;;24.40;71.60;;;;;;5135454;27;20055;-46
2021/06/19 02:08:03;;;;;;;3.47;3.17;;;24.40;71.60;;;;;;5135770;27;20047;-50
2021/06/19 02:10:33;;;;;;;3.20;2.70;;;24.50;71.70;;;;;;5134775;27;20050;-51
2021/06/19 02:13:01;;;;;;;3.20;2.85;;;24.40;71.60;;;;;;5134999;27;20089;-48
2021/06/19 02:15:27;;;;;;;3.55;2.75;;;24.40;71.60;;;;;;5135233;27;20490;-49
2021/06/19 02:17:55;;;;;;;2.97;2.67;;;24.50;71.70;;;;;;5135331;27;20039;-50
2021/06/19 02:20:22;;;;;;;2.95;2.65;;;24.40;71.70;;;;;;5135147;27;20051;-41
2021/06/19 02:22:48;;;;;;;4.03;2.80;;;24.40;71.70;;;;;;5135569;27;20096;-45
2021/06/19 02:25:17;;;;;;;3.00;2.70;;;24.40;71.70;;;;;;5134716;27;20072;-46
2021/06/19 02:27:48;;;;;;;3.00;2.67;;;24.40;71.60;;;;;;5133977;27;20066;-47
2021/06/19 02:30:15;;;;;;;3.10;2.80;;;24.40;71.70;;;;;;5135406;27;20535;-52
2021/06/19 02:32:41;;;;;;;3.28;2.97;;;24.40;71.70;;;;;;5134685;27;20482;-51
2021/06/19 02:35:07;;;;;;;3.08;2.65;;;24.40;71.70;;;;;;5134912;27;20050;-51
2021/06/19 02:37:33;;;;;;;2.70;2.50;;;24.40;71.70;;;;;;5135252;27;20058;-52
2021/06/19 02:39:59;;;;;;;3.83;2.70;;;24.50;71.70;;;;;;5134730;27;20047;-49
2021/06/19 02:42:24;;;;;;;2.90;2.60;;;24.40;71.70;;;;;;5134355;27;20129;-47
2021/06/19 02:44:51;;;;;;;3.67;2.70;;;24.40;71.70;;;;;;5135319;27;20051;-49
2021/06/19 02:47:16;;;;;;;3.10;2.80;;;24.40;71.70;;;;;;5134740;27;20046;-46
2021/06/19 02:49:42;;;;;;;3.40;3.10;;;24.40;71.70;;;;;;5135030;27;20043;-47
2021/06/19 02:52:09;;;;;;;3.00;2.70;;;24.40;71.70;;;;;;5134158;27;20042;-45
2021/06/19 02:54:40;;;;;;;3.30;2.95;;;24.40;71.70;;;;;;5134109;27;20045;-49
2021/06/19 02:57:07;;;;;;;3.00;2.70;;;24.40;71.70;;;;;;5133261;27;20069;-45
2021/06/19 02:59:33;;;;;;;3.13;2.83;;;24.40;71.70;;;;;;5133792;27;20099;-40
2021/06/19 03:01:59;;;;;;;3.65;2.90;;;24.40;71.70;;;;;;5133725;27;20047;-45
2021/06/19 03:04:24;;;;;;;3.00;2.70;;;24.40;71.70;;;;;;5133514;27;20046;-50
2021/06/19 03:06:50;;;;;;;3.00;2.70;;;24.40;71.70;;;;;;5134622;27;20152;-49
2021/06/19 03:09:16;;;;;;;3.00;2.70;;;24.40;71.70;;;;;;5134365;27;20122;-50
2021/06/19 03:11:42;;;;;;;3.72;2.85;;;24.40;71.70;;;;;;5134006;27;20077;-49
2021/06/19 03:14:07;;;;;;;3.55;2.50;;;24.40;71.70;;;;;;5133726;27;20046;-48
2021/06/19 03:16:35;;;;;;;3.30;2.78;;;24.40;71.70;;;;;;5134051;27;20047;-43
2021/06/19 03:19:01;;;;;;;2.67;2.42;;;24.40;71.70;;;;;;5134261;27;20376;-47
2021/06/19 03:21:27;;;;;;;3.78;3.03;;;24.40;71.70;;;;;;5134294;27;20047;-49
2021/06/19 03:23:53;;;;;;;3.25;2.80;;;24.40;72.40;;;;;;5133639;27;20039;-51
2021/06/19 03:26:18;;;;;;;3.30;2.85;;;24.40;71.70;;;;;;5134116;27;20436;-47
2021/06/19 03:28:44;;;;;;;2.88;2.58;;;24.40;71.70;;;;;;5133362;27;20047;-42
2021/06/19 03:31:10;;;;;;;3.58;3.00;;;24.40;71.70;;;;;;5133802;27;20047;-44
2021/06/19 03:33:35;;;;;;;2.88;2.58;;;24.40;71.70;;;;;;5133560;27;20462;-43
2021/06/19 03:36:01;;;;;;;3.10;2.80;;;24.40;71.70;;;;;;5133373;27;20035;-46
2021/06/19 03:38:27;;;;;;;3.63;3.33;;;24.40;71.70;;;;;;5133514;27;20043;-44
2021/06/19 03:40:53;;;;;;;3.22;2.70;;;24.40;71.70;;;;;;5133501;27;20059;-46
2021/06/19 03:43:19;;;;;;;2.70;2.50;;;24.30;71.60;;;;;;5133182;27;20053;-44
2021/06/19 03:45:45;;;;;;;3.20;2.83;;;24.40;71.70;;;;;;5133043;27;20050;-44
2021/06/19 03:48:11;;;;;;;3.05;2.70;;;24.30;71.60;;;;;;5132974;27;20142;-41
2021/06/19 03:50:37;;;;;;;2.72;2.40;;;24.30;71.60;;;;;;5133539;27;20043;-40
2021/06/19 03:53:04;;;;;;;3.47;2.80;;;24.40;71.60;;;;;;5133598;27;20139;-45
2021/06/19 03:55:30;;;;;;;2.80;2.60;;;24.30;71.60;;;;;;5132929;27;20134;-44
2021/06/19 03:57:58;;;;;;;3.10;2.80;;;24.30;71.60;;;;;;5133193;27;20096;-44
2021/06/19 04:00:24;;;;;;;3.17;2.70;;;24.40;71.60;;;;;;5132864;27;20453;-45
2021/06/19 04:02:50;;;;;;;3.10;2.80;;;24.30;71.50;;;;;;5133239;27;20118;-47
2021/06/19 04:05:16;;;;;;;3.00;2.70;;;24.30;71.50;;;;;;5132922;27;20502;-50
2021/06/19 04:07:44;;;;;;;2.88;2.60;;;24.30;71.50;;;;;;5133274;27;20043;-45
2021/06/19 04:10:11;;;;;;;2.75;2.53;;;24.30;71.50;;;;;;5133506;27;20095;-44
2021/06/19 04:12:37;;;;;;;3.40;2.97;;;24.30;72.10;;;;;;5133032;27;20123;-45
2021/06/19 04:15:07;;;;;;;3.05;2.75;;;24.30;71.40;;;;;;5133242;27;20103;-44
2021/06/19 04:17:33;;;;;;;3.08;2.78;;;24.30;71.40;;;;;;5133212;27;20051;-45
2021/06/19 04:19:59;;;;;;;2.72;2.33;;;24.30;71.40;;;;;;5133498;28;20384;-46
2021/06/19 04:22:24;;;;;;;3.20;2.90;;;24.30;71.40;;;;;;5133008;28;20051;-43
2021/06/19 04:24:50;;;;;;;3.28;2.67;;;24.30;71.40;;;;;;5133053;28;20126;-47
2021/06/19 04:27:19;;;;;;;2.67;2.47;;;24.30;71.40;;;;;;5132693;28;20047;-42
2021/06/19 04:29:45;;;;;;;2.60;2.40;;;24.30;71.40;;;;;;5133368;28;20078;-42
2021/06/19 04:32:12;;;;;;;3.20;2.80;;;24.30;71.40;;;;;;5132769;28;20047;-46
2021/06/19 04:34:40;;;;;;;2.83;2.53;;;24.40;71.40;;;;;;5132683;28;20054;-44
2021/06/19 04:37:14;;;;;;;2.88;2.67;;;24.30;71.40;;;;;;5133032;28;20129;-52
2021/06/19 04:40:29;;;;;;;2.65;2.45;;;24.30;71.40;;;;;;5132657;28;20047;-50
2021/06/19 04:42:35;;;;;;;3.35;2.95;;;24.30;71.40;;;;;;5121978;28;20047;-51
2021/06/19 04:45:02;;;;;;;2.90;2.70;;;24.30;71.40;;;;;;5133316;28;20051;-51
2021/06/19 04:47:30;;;;;;;2.92;2.42;;;24.30;71.40;;;;;;5132526;28;20043;-48
2021/06/19 04:49:57;;;;;;;2.97;2.60;;;24.30;72.00;;;;;;5132858;28;20039;-49
2021/06/19 04:52:23;;;;;;;4.30;2.88;;;24.30;71.30;;;;;;5135835;27;20047;-51
2021/06/19 04:54:51;;;;;;;3.08;2.78;;;24.30;71.30;;;;;;5137198;27;20047;-47
2021/06/19 04:57:16;;;;;;;2.67;2.47;;;24.30;71.30;;;;;;5136667;27;20043;-44
2021/06/19 04:59:42;;;;;;;2.65;2.45;;;24.30;71.90;;;;;;5137258;27;20047;-43
2021/06/19 05:02:08;;;;;;;2.83;2.63;;;24.30;71.30;;;;;;5136774;27;20081;-46
2021/06/19 05:04:34;;;;;;;2.55;2.35;;;24.30;71.30;;;;;;5136472;27;20060;-51
2021/06/19 05:06:59;;;;;;;3.15;2.85;;;24.30;71.30;;;;;;5136751;27;20054;-52
2021/06/19 05:09:25;;;;;;;3.25;2.95;;;24.30;71.30;;;;;;5136599;27;20080;-42
2021/06/19 05:11:51;;;;;;;3.03;2.63;;;24.30;71.30;;;;;;5136606;27;20058;-50
2021/06/19 05:14:17;;;;;;;3.88;3.13;;;24.30;71.30;;;;;;5136715;27;20039;-43
2021/06/19 05:16:43;;;;;;;2.88;2.67;;;24.30;71.30;;;;;;5136176;27;20039;-44
2021/06/19 05:19:08;;;;;;;2.72;2.53;;;24.30;71.30;;;;;;5136177;27;20043;-49
2021/06/19 05:21:34;;;;;;;3.13;2.80;;;24.30;71.40;;;;;;5136167;27;20058;-48
2021/06/19 05:24:00;;;;;;;2.78;2.58;;;24.30;71.30;;;;;;5136447;27;20047;-42
2021/06/19 05:26:25;;;;;;;2.80;2.50;;;24.30;71.30;;;;;;5136454;27;20051;-47
2021/06/19 05:28:51;;;;;;;3.15;2.88;;;24.30;71.30;;;;;;5136009;27;20043;-46
2021/06/19 05:31:17;;;;;;;3.22;2.92;;;24.30;71.20;;;;;;5136052;27;20164;-48
2021/06/19 05:33:42;;;;;;;3.10;2.65;;;24.30;71.20;;;;;;5135886;27;20035;-45
2021/06/19 05:36:08;;;;;;;2.45;2.25;;;24.30;71.20;;;;;;5135500;27;20582;-49
2021/06/19 05:38:34;;;;;;;2.55;2.35;;;24.30;71.20;;;;;;5136200;27;20047;-49
2021/06/19 05:40:59;;;;;;;2.97;2.70;;;24.30;71.20;;;;;;5135860;27;20495;-46
2021/06/19 05:43:25;;;;;;;2.60;2.40;;;24.30;71.20;;;;;;5135576;27;20057;-44
2021/06/19 05:45:54;;;;;;;2.80;2.60;;;24.30;71.10;;;;;;5135967;27;20398;-44
2021/06/19 05:48:20;;;;;;;3.05;2.75;;;24.30;71.10;;;;;;5135562;27;20043;-49
2021/06/19 05:50:46;;;;;;;3.10;2.80;;;24.30;71.10;;;;;;5135757;27;20051;-49
2021/06/19 05:53:12;;;;;;;2.53;2.33;;;24.30;71.10;;;;;;5134992;27;20047;-42
2021/06/19 05:55:38;;;;;;;2.85;2.58;;;24.30;71.00;;;;;;5135351;27;20043;-49
2021/06/19 05:58:04;;;;;;;2.58;2.38;;;24.30;71.00;;;;;;5135425;27;20049;-48
2021/06/19 06:00:29;;;;;;;2.97;2.67;;;24.30;71.00;;;;;;5135409;27;20047;-47
2021/06/19 06:02:55;;;;;;;3.03;2.72;;;24.30;71.00;;;;;;5116917;27;20043;-48
2021/06/19 06:05:21;;;;;;;3.35;2.60;;;24.30;71.00;;;;;;5134284;27;20043;-44
2021/06/19 06:07:47;;;;;;;3.00;2.70;;;24.30;71.00;;;;;;5135331;27;20072;-47
2021/06/19 06:10:13;;;;;;;2.53;2.33;;;24.30;71.00;;;;;;5135053;27;20039;-47
2021/06/19 06:12:38;;;;;;;3.05;2.70;;;24.30;71.00;;;;;;5135527;27;20054;-45
2021/06/19 06:15:06;;;;;;;2.78;2.40;;;24.30;70.90;;;;;;5135499;27;20047;-49
2021/06/19 06:17:32;;;;;;;2.10;1.90;;;24.30;70.90;;;;;;5134697;27;20043;-47
2021/06/19 06:19:58;;;;;;;2.70;2.47;;;24.30;70.90;;;;;;5134993;27;20054;-41
2021/06/19 06:22:23;;;;;;;3.95;2.53;;;24.30;70.90;;;;;;5135599;27;20039;-46
2021/06/19 06:24:49;;;;;;;2.50;2.30;;;24.30;70.90;;;;;;5135196;27;20495;-39
2021/06/19 06:27:15;;;;;;;2.83;2.47;;;24.30;70.80;;;;;;5135215;27;20146;-40
2021/06/19 06:29:41;;;;;;;3.10;2.80;;;24.30;70.80;;;;;;5135489;27;20055;-43
2021/06/19 06:32:07;;;;;;;3.33;2.83;;;24.30;70.80;;;;;;5135413;27;20047;-43
2021/06/19 06:34:33;;;;;;;2.70;2.45;;;24.30;70.80;;;;;;5135045;27;20043;-43
2021/06/19 06:36:59;;;;;;;4.60;2.75;;;24.30;70.80;;;;;;5134652;27;20069;-44
2021/06/19 06:39:25;;;;;;;2.88;2.53;;;24.30;70.80;;;;;;5134785;27;20484;-41
2021/06/19 06:41:50;;;;;;;2.40;2.20;;;24.30;70.80;;;;;;5116302;27;20055;-47
2021/06/19 06:44:16;;;;;;;2.92;2.58;;;24.30;70.80;;;;;;5134949;27;20046;-43
2021/06/19 06:46:42;;;;;;;3.95;2.83;;;24.30;70.70;;;;;;5134748;27;20050;-50
2021/06/19 06:49:08;;;;;;;2.85;2.55;;;24.30;70.80;;;;;;5134679;27;20043;-43
2021/06/19 06:51:34;;;;;;;2.60;2.38;;;24.30;70.70;;;;;;5134458;27;20065;-46
2021/06/19 06:54:01;;;;;;;2.60;2.40;;;24.30;70.70;;;;;;5134537;27;20043;-43
2021/06/19 06:56:26;;;;;;;3.33;2.67;;;24.30;70.70;;;;;;5134634;27;20047;-43
2021/06/19 06:58:52;;;;;;;3.55;3.05;;;24.30;70.70;;;;;;5134605;27;20122;-41
2021/06/19 07:01:18;;;;;;;2.60;2.40;;;24.30;70.70;;;;;;5134577;27;20387;-44
2021/06/19 07:03:43;;;;;;;3.05;2.75;;;24.30;70.70;;;;;;5134701;27;20043;-41
2021/06/19 07:06:09;;;;;;;2.50;2.30;;;24.30;70.80;;;;;;5134682;27;20047;-47
2021/06/19 07:08:35;;;;;;;3.00;2.67;;;24.30;70.70;;;;;;5134216;27;20058;-49
2021/06/19 07:11:01;;;;;;;3.15;2.75;;;24.30;70.80;;;;;;5134614;27;20043;-46
2021/06/19 07:13:26;;;;;;;3.42;2.40;;;24.30;70.70;;;;;;5134119;27;20478;-43
2021/06/19 07:15:52;;;;;;;2.60;2.40;;;24.30;70.70;;;;;;5134069;27;20093;-44
2021/06/19 07:18:18;;;;;;;3.00;2.70;;;24.30;70.70;;;;;;5134371;27;20039;-41
2021/06/19 07:20:44;;;;;;;2.78;2.50;;;24.30;70.70;;;;;;5134334;27;20047;-46
2021/06/19 07:23:09;;;;;;;3.00;2.70;;;24.30;70.70;;;;;;5133828;27;20067;-50
2021/06/19 07:25:35;;;;;;;3.80;2.50;;;24.30;70.70;;;;;;5133877;27;20415;-42
2021/06/19 07:28:01;;;;;;;3.05;2.75;;;24.30;70.70;;;;;;5134020;27;20039;-46
2021/06/19 07:30:27;;;;;;;2.92;2.63;;;24.30;70.70;;;;;;5134199;27;20143;-46
2021/06/19 07:32:54;;;;;;;3.05;2.72;;;24.30;70.70;;;;;;5133902;27;20556;-45
2021/06/19 07:35:21;;;;;;;2.70;2.50;;;24.40;70.70;;;;;;5133864;27;20134;-48
2021/06/19 07:37:47;;;;;;;2.90;2.45;;;24.30;70.60;;;;;;5132974;27;20074;-46
2021/06/19 07:40:14;;;;;;;3.33;2.65;;;24.30;70.60;;;;;;5133553;27;20105;-41
2021/06/19 07:42:39;;;;;;;3.78;2.97;;;24.40;70.70;;;;;;5133841;27;20419;-44
2021/06/19 07:45:07;;;;;;;2.95;2.45;;;24.40;70.70;;;;;;5133828;27;20059;-48
2021/06/19 07:47:33;;;;;;;3.40;2.80;;;24.40;70.70;;;;;;5133225;27;20043;-41
2021/06/19 07:50:00;;;;;;;2.92;2.60;;;24.30;70.60;;;;;;5133392;27;20550;-43
2021/06/19 07:52:26;;;;;;;2.50;2.30;;;24.40;70.60;;;;;;5133951;27;20049;-38
2021/06/19 07:54:52;;;;;;;2.80;2.60;;;24.40;70.60;;;;;;5133119;27;20118;-39
2021/06/19 07:57:19;;;;;;;2.80;2.55;;;24.40;70.60;;;;;;5133238;27;20093;-43
2021/06/19 07:59:45;;;;;;;2.97;2.65;;;24.40;70.50;;;;;;5128293;27;20069;-46
2021/06/19 08:02:11;;;;;;;3.47;2.50;;;24.40;70.50;;;;;;5119310;27;20615;-40
2021/06/19 08:04:37;;;;;;;4.07;2.90;;;24.40;70.50;;;;;;5094095;28;20070;-42
2021/06/19 08:07:03;;;;;;;3.55;2.55;;;24.40;70.50;;;;;;5115281;27;20125;-45
2021/06/19 08:09:29;;;;;;;3.60;3.05;;;24.40;70.40;;;;;;5132256;27;20449;-45
2021/06/19 08:11:56;;;;;;;3.75;2.83;;;24.40;70.40;;;;;;5132573;27;20047;-45
2021/06/19 08:14:22;;;;;;;2.75;2.42;;;24.40;70.40;;;;;;5132070;27;20046;-45
2021/06/19 08:16:52;;;;;;;3.28;2.80;;;24.40;70.40;;;;;;5132168;27;20043;-42
2021/06/19 08:19:18;;;;;;;4.18;3.03;;;24.40;70.40;;;;;;5132439;27;20043;-43
2021/06/19 08:21:43;;;;;;;3.33;2.70;;;24.30;70.30;;;;;;5132969;28;20134;-42
2021/06/19 08:24:11;;;;;;;3.50;2.80;;;24.40;70.40;;;;;;5132473;28;20043;-44
2021/06/19 08:26:37;;;;;;;2.80;2.50;;;24.40;70.30;;;;;;5133400;27;20067;-44
2021/06/19 08:29:07;;;;;;;2.47;2.25;;;24.40;70.30;;;;;;5136657;27;20050;-47
2021/06/19 08:31:37;;;;;;;3.08;2.67;;;24.40;70.30;;;;;;5137444;27;20062;-45
2021/06/19 08:34:04;;;;;;;2.90;2.45;;;24.40;70.30;;;;;;5137387;27;20039;-44
2021/06/19 08:36:30;;;;;;;3.00;2.70;;;24.40;70.30;;;;;;5136966;27;20135;-42
2021/06/19 08:38:56;;;;;;;2.63;2.30;;;24.40;70.30;;;;;;5137292;27;20039;-45
2021/06/19 08:41:22;;;;;;;3.17;2.80;;;24.40;70.30;;;;;;5136684;27;20389;-46
2021/06/19 08:43:48;;;;;;;2.90;2.40;;;24.40;70.20;;;;;;5137087;27;20043;-43
2021/06/19 08:46:18;;;;;;;2.70;2.30;;;24.40;70.20;;;;;;5136758;27;20482;-41
2021/06/19 08:48:47;;;;;;;3.20;2.78;;;24.40;70.20;;;;;;5136476;27;20053;-46
2021/06/19 08:51:13;;;;;;;3.58;2.67;;;24.40;70.20;;;;;;5137081;27;20047;-46
2021/06/19 08:53:39;;;;;;;2.75;2.55;;;24.40;70.20;;;;;;5136952;27;20054;-43
2021/06/19 08:56:05;;;;;;;3.70;2.90;;;24.40;70.40;;;;;;5136382;27;20592;-41
2021/06/19 08:58:30;;;;;;;3.30;2.83;;;24.40;70.20;;;;;;5136446;27;20457;-43
2021/06/19 09:00:57;;;;;;;3.03;2.60;;;24.50;70.30;;;;;;5122604;27;20036;-42
2021/06/19 09:03:27;;;;;;;2.72;2.40;;;24.40;70.20;;;;;;5132682;27;20043;-42
2021/06/19 09:06:27;;;;;;;3.55;2.40;;;24.40;70.30;;;;;;5119254;27;20062;-42
2021/06/19 09:09:22;;;;;;;3.03;2.58;;;24.40;70.10;;;;;;5136731;27;20063;-42
2021/06/19 09:11:54;;;;;;;2.90;2.60;;;24.40;70.10;;;;;;5133404;27;20464;-42
2021/06/19 09:14:25;;;;;;;2.75;2.55;;;24.40;70.30;;;;;;5113321;27;20047;-42
2021/06/19 09:16:59;;;;;;;3.00;2.50;;;24.40;70.30;;;;;;5136257;27;20099;-42
2021/06/19 09:19:27;;;;;;;2.80;2.50;;;24.40;70.30;;;;;;5136508;27;20054;-40
2021/06/19 09:22:18;;;;;;;3.00;2.45;;;24.40;71.00;;;;;;5136240;27;20039;-45
2021/06/19 09:24:56;;;;;;;2.95;2.65;;;24.50;70.30;;;;;;5127935;27;20053;-44
2021/06/19 09:27:27;;;;;;;3.35;2.42;;;24.40;70.40;;;;;;5123564;27;20406;-42
2021/06/19 09:30:15;;;;;;;2.72;2.40;;;24.50;70.50;;;;;;5129876;27;20070;-41
2021/06/19 09:32:50;;;;;;;3.47;2.40;;;24.50;70.40;;;;;;5030052;28;20061;-45
2021/06/19 09:35:17;;;;;;;2.60;2.40;;;24.40;70.60;;;;;;5032614;28;20076;-41
2021/06/19 09:37:46;;;;;;;3.35;2.83;;;24.40;70.60;;;;;;5031051;28;20154;-44
2021/06/19 09:40:41;;;;;;;2.60;2.40;;;24.50;70.70;;;;;;5031561;28;20046;-43
2021/06/19 09:43:24;;;;;;;2.58;2.38;;;24.50;70.60;;;;;;5031114;28;20394;-47
2021/06/19 09:46:09;;;;;;;3.13;2.40;;;24.50;70.70;;;;;;5032814;28;20053;-48
2021/06/19 09:48:37;;;;;;;3.38;3.08;;;24.50;70.70;;;;;;5031981;28;20115;-46
2021/06/19 09:51:16;;;;;;;3.55;2.42;;;24.50;70.90;;;;;;5032279;28;20061;-45
2021/06/19 09:54:07;;;;;;;2.60;2.40;;;24.50;70.90;;;;;;5031521;28;20049;-47
2021/06/19 09:57:02;;;;;;;3.03;2.50;;;24.50;71.00;;;;;;5037884;28;20457;-49
2021/06/19 09:59:32;;;;;;;2.67;2.40;;;24.50;70.90;;;;;;4950753;29;20119;-48
2021/06/19 10:02:00;;;;;;;2.95;2.38;;;24.50;71.10;;;;;;4953486;29;20058;-46
2021/06/19 10:04:28;;;;;;;2.58;2.30;;;24.50;71.10;;;;;;4954417;29;20514;-48
2021/06/19 10:06:55;;;;;;;2.97;2.35;;;24.40;71.10;;;;;;4954590;28;20055;-47
2021/06/19 10:09:21;;;;;;;2.47;2.20;;;24.50;71.10;;;;;;4977996;28;20045;-45
2021/06/19 10:11:52;;;;;;;3.10;2.80;;;24.50;71.20;;;;;;5032162;28;20580;-44
2021/06/19 10:14:23;;;;;;;2.67;2.45;;;24.50;71.20;;;;;;5030871;28;20509;-42
2021/06/19 10:16:53;;;;;;;2.28;2.00;;;24.50;71.20;;;;;;5031393;28;20060;-47
2021/06/19 10:19:25;;;;;;;3.10;2.58;;;24.50;71.20;;;;;;5031781;28;20577;-50
2021/06/19 10:21:54;;;;;;;2.72;2.25;;;24.50;71.20;;;;;;5032052;28;20045;-49
2021/06/19 10:24:21;;;;;;;2.95;2.60;;;24.50;71.20;;;;;;5031892;28;20073;-42
2021/06/19 10:26:48;;;;;;;3.78;2.33;;;24.50;71.20;;;;;;5031980;28;20057;-44
2021/06/19 10:29:15;;;;;;;3.03;2.38;;;24.50;71.20;;;;;;5031457;28;20057;-43
2021/06/19 10:31:43;;;;;;;2.88;2.58;;;24.50;71.20;;;;;;5031235;28;20106;-40
2021/06/19 10:34:24;;;;;;;3.33;2.40;;;24.60;71.20;;;;;;5031870;28;20064;-45
2021/06/19 10:36:52;;;;;;;3.00;2.60;;;24.50;71.20;;;;;;5126574;27;20059;-38
2021/06/19 10:39:37;;;;;;;2.92;2.60;;;24.50;71.20;;;;;;5134727;27;20051;-44
2021/06/19 10:42:04;;;;;;;2.80;2.50;;;24.60;71.20;;;;;;5134539;27;20051;-45
2021/06/19 10:44:50;;;;;;;2.50;2.20;;;24.60;71.20;;;;;;5134396;27;20054;-46
2021/06/19 10:47:20;;;;;;;2.10;1.90;;;24.60;71.40;;;;;;5114210;28;20067;-43
2021/06/19 10:49:46;;;;;;;2.75;2.22;;;24.60;71.20;;;;;;5113265;28;20048;-42
2021/06/19 10:52:30;;;;;;;2.22;2.03;;;24.60;71.20;;;;;;5131633;27;20043;-42
2021/06/19 10:55:09;;;;;;;2.17;1.98;;;24.60;71.20;;;;;;5134397;27;20054;-45
2021/06/19 10:57:52;;;;;;;2.20;2.00;;;24.60;71.30;;;;;;5134556;27;20158;-42
2021/06/19 11:00:43;;;;;;;2.40;2.20;;;24.60;71.20;;;;;;5133746;27;20125;-44
2021/06/19 11:03:09;;;;;;;2.15;1.95;;;24.60;71.30;;;;;;5134554;27;20130;-44
2021/06/19 11:05:44;;;;;;;2.33;2.13;;;24.60;71.30;;;;;;5134388;27;20543;-41
2021/06/19 11:08:10;;;;;;;2.65;2.42;;;24.60;71.30;;;;;;5134334;27;20156;-43
2021/06/19 11:10:52;;;;;;;2.75;2.45;;;24.60;71.30;;;;;;5115078;27;20047;-42
2021/06/19 11:13:30;;;;;;;2.42;2.17;;;24.60;71.20;;;;;;5134230;27;20035;-44
2021/06/19 11:16:00;;;;;;;2.75;2.08;;;24.60;71.20;;;;;;5134005;27;20047;-43
2021/06/19 11:18:48;;;;;;;2.72;2.08;;;24.60;71.20;;;;;;5134104;27;20111;-43
2021/06/19 11:21:34;;;;;;;2.00;1.90;;;24.60;71.20;;;;;;5133500;27;20043;-43
2021/06/19 11:23:59;;;;;;;2.53;2.22;;;24.60;71.20;;;;;;5133792;27;20074;-43
2021/06/19 11:27:05;;;;;;;2.42;2.13;;;24.60;71.20;;;;;;5134127;27;20081;-42
2021/06/19 11:29:41;;;;;;;2.22;2.00;;;24.60;71.20;;;;;;5133804;27;20047;-41
2021/06/19 11:32:23;;;;;;;2.40;2.10;;;24.60;71.20;;;;;;5133415;27;20407;-43
2021/06/19 11:34:49;;;;;;;2.60;2.38;;;24.70;71.30;;;;;;5133868;27;20055;-41
2021/06/19 11:37:15;;;;;;;2.85;2.55;;;24.60;71.20;;;;;;5133852;27;20079;-42
2021/06/19 11:39:41;;;;;;;2.47;2.28;;;24.60;71.20;;;;;;5133893;27;20073;-40
2021/06/19 11:42:07;;;;;;;3.00;2.70;;;24.70;71.20;;;;;;5133365;27;20414;-42
2021/06/19 11:44:36;;;;;;;2.30;2.10;;;24.60;71.20;;;;;;5133869;27;20039;-44
2021/06/19 11:47:05;;;;;;;2.45;2.25;;;24.70;71.20;;;;;;5133567;27;20471;-42
2021/06/19 11:49:33;;;;;;;3.03;2.40;;;24.70;71.30;;;;;;5133395;27;20364;-43
2021/06/19 11:52:00;;;;;;;2.50;2.30;;;24.70;71.30;;;;;;5133533;27;20047;-41
2021/06/19 11:54:26;;;;;;;2.53;2.17;;;24.70;71.20;;;;;;5133396;27;20114;-42
2021/06/19 11:56:56;;;;;;;2.38;2.10;;;24.70;71.20;;;;;;5133263;27;20042;-40
2021/06/19 11:59:23;;;;;;;2.08;1.88;;;24.70;71.20;;;;;;5133556;27;20523;-41
2021/06/19 12:01:50;;;;;;;2.40;2.20;;;24.70;71.20;;;;;;5133478;27;20043;-42
2021/06/19 12:04:21;;;;;;;2.55;2.20;;;24.70;71.20;;;;;;5132609;27;20545;-40
2021/06/19 12:06:51;;;;;;;3.92;2.92;;;24.70;71.10;;;;;;5133490;27;20118;-43
2021/06/19 12:09:19;;;;;;;2.60;2.40;;;24.80;71.20;;;;;;5133494;27;20043;-42
2021/06/19 12:11:46;;;;;;;3.10;2.63;;;24.70;71.10;;;;;;5133487;27;20050;-42
2021/06/19 12:14:31;;;;;;;3.05;2.25;;;24.80;71.10;;;;;;5133436;27;20129;-41
2021/06/19 12:17:02;;;;;;;3.03;2.58;;;24.80;71.00;;;;;;5129463;27;20046;-39
2021/06/19 12:19:33;;;;;;;2.50;2.15;;;24.80;71.00;;;;;;5117026;28;20452;-39
2021/06/19 12:22:04;;;;;;;2.60;2.40;;;24.80;71.00;;;;;;5112297;28;20058;-41
2021/06/19 12:24:38;;;;;;;2.55;2.35;;;24.80;71.00;;;;;;5117301;28;20050;-39
2021/06/19 12:27:09;;;;;;;2.85;2.42;;;24.80;71.00;;;;;;5132513;28;20083;-41
2021/06/19 12:29:40;;;;;;;2.88;2.20;;;24.80;71.00;;;;;;5132365;28;20076;-40
2021/06/19 12:32:20;;;;;;;2.50;2.30;;;24.80;71.00;;;;;;5131980;28;20047;-44
2021/06/19 12:34:46;;;;;;;2.60;2.40;;;24.80;71.00;;;;;;5130736;28;20112;-40
2021/06/19 12:37:12;;;;;;;2.03;1.90;;;24.80;71.00;;;;;;5133095;28;20433;-41
2021/06/19 12:39:39;;;;;;;2.85;1.90;;;24.80;71.00;;;;;;5114170;28;20058;-43
2021/06/19 12:42:05;;;;;;;2.28;2.08;;;24.80;71.00;;;;;;5132911;28;20063;-43
2021/06/19 12:44:31;;;;;;;2.33;2.13;;;24.80;71.00;;;;;;5133102;28;20039;-41
2021/06/19 12:47:37;;;;;;;2.17;1.98;;;24.80;71.00;;;;;;5113820;28;20508;-38
2021/06/19 12:50:03;;;;;;;2.45;2.20;;;24.80;70.80;;;;;;5029800;28;20049;-44
2021/06/19 12:52:29;;;;;;;2.30;2.00;;;24.80;70.90;;;;;;5030073;28;20041;-41
2021/06/19 12:55:12;;;;;;;2.58;2.38;;;24.80;70.90;;;;;;5029926;28;20045;-42